sensor_id;sensor_type;location;lat;lon;timestamp;P1;durP1;ratioP1;P2;durP2;ratioP2
43817;SDS011;29868;47.360;18.984;2022-09-09T00:00:53;3.85;;;2.08;;
43817;SDS011;29868;47.360;18.984;2022-09-09T00:03:31;2.38;;;1.73;;
43817;SDS011;29868;47.360;18.984;2022-09-09T00:11:40;3.78;;;2.15;;
43817;SDS011;29868;47.360;18.984;2022-09-09T00:17:07;3.25;;;2.10;;
43817;SDS011;29868;47.360;18.984;2022-09-09T00:19:39;3.08;;;2.08;;
43817;SDS011;29868;47.360;18.984;2022-09-09T00:22:20;3.03;;;2.00;;
43817;SDS011;29868;47.360;18.984;2022-09-09T00:24:54;3.10;;;2.10;;
43817;SDS011;29868;47.360;18.984;2022-09-09T00:32:45;3.15;;;1.90;;
43817;SDS011;29868;47.360;18.984;2022-09-09T00:35:14;3.10;;;2.03;;
43817;SDS011;29868;47.360;18.984;2022-09-09T00:37:43;2.22;;;1.83;;
43817;SDS011;29868;47.360;18.984;2022-09-09T00:40:34;3.60;;;2.10;;
43817;SDS011;29868;47.360;18.984;2022-09-09T00:46:20;2.85;;;1.90;;
43817;SDS011;29868;47.360;18.984;2022-09-09T00:49:23;3.10;;;1.77;;
43817;SDS011;29868;47.360;18.984;2022-09-09T00:52:16;2.58;;;1.90;;
43817;SDS011;29868;47.360;18.984;2022-09-09T00:57:28;4.20;;;1.92;;
43817;SDS011;29868;47.360;18.984;2022-09-09T01:11:00;3.25;;;2.03;;
43817;SDS011;29868;47.360;18.984;2022-09-09T01:13:34;3.33;;;2.25;;
43817;SDS011;29868;47.360;18.984;2022-09-09T01:16:01;3.00;;;2.03;;
43817;SDS011;29868;47.360;18.984;2022-09-09T01:18:30;3.47;;;2.08;;
43817;SDS011;29868;47.360;18.984;2022-09-09T01:21:12;3.50;;;2.00;;
43817;SDS011;29868;47.360;18.984;2022-09-09T01:26:18;3.05;;;2.10;;
43817;SDS011;29868;47.360;18.984;2022-09-09T01:28:49;3.58;;;2.60;;
43817;SDS011;29868;47.360;18.984;2022-09-09T01:31:21;3.53;;;2.15;;
43817;SDS011;29868;47.360;18.984;2022-09-09T01:33:51;4.20;;;2.30;;
43817;SDS011;29868;47.360;18.984;2022-09-09T01:38:56;2.83;;;1.88;;
43817;SDS011;29868;47.360;18.984;2022-09-09T01:41:22;3.25;;;2.25;;
43817;SDS011;29868;47.360;18.984;2022-09-09T01:43:48;3.10;;;2.33;;
43817;SDS011;29868;47.360;18.984;2022-09-09T01:46:14;2.95;;;2.10;;
43817;SDS011;29868;47.360;18.984;2022-09-09T01:48:40;4.03;;;2.50;;
43817;SDS011;29868;47.360;18.984;2022-09-09T01:51:07;2.90;;;2.05;;
43817;SDS011;29868;47.360;18.984;2022-09-09T01:53:35;2.65;;;2.00;;
43817;SDS011;29868;47.360;18.984;2022-09-09T01:58:49;3.65;;;2.40;;
43817;SDS011;29868;47.360;18.984;2022-09-09T02:07:35;3.78;;;2.40;;
43817;SDS011;29868;47.360;18.984;2022-09-09T02:10:10;5.22;;;2.42;;
43817;SDS011;29868;47.360;18.984;2022-09-09T02:12:42;3.00;;;2.35;;
43817;SDS011;29868;47.360;18.984;2022-09-09T02:15:26;3.78;;;2.60;;
43817;SDS011;29868;47.360;18.984;2022-09-09T02:17:57;3.10;;;2.38;;
43817;SDS011;29868;47.360;18.984;2022-09-09T02:20:26;3.08;;;2.20;;
43817;SDS011;29868;47.360;18.984;2022-09-09T02:22:57;3.30;;;2.28;;
43817;SDS011;29868;47.360;18.984;2022-09-09T02:25:24;3.63;;;2.80;;
43817;SDS011;29868;47.360;18.984;2022-09-09T02:27:53;2.78;;;2.30;;
43817;SDS011;29868;47.360;18.984;2022-09-09T02:30:18;4.88;;;2.75;;
43817;SDS011;29868;47.360;18.984;2022-09-09T02:32:45;3.63;;;2.25;;
43817;SDS011;29868;47.360;18.984;2022-09-09T02:35:15;3.05;;;2.35;;
43817;SDS011;29868;47.360;18.984;2022-09-09T02:37:45;3.22;;;2.28;;
43817;SDS011;29868;47.360;18.984;2022-09-09T02:40:11;3.17;;;2.30;;
43817;SDS011;29868;47.360;18.984;2022-09-09T02:42:40;3.55;;;2.40;;
43817;SDS011;29868;47.360;18.984;2022-09-09T02:45:11;3.58;;;2.20;;
43817;SDS011;29868;47.360;18.984;2022-09-09T02:55:54;3.08;;;2.60;;
43817;SDS011;29868;47.360;18.984;2022-09-09T02:58:23;4.00;;;2.50;;
43817;SDS011;29868;47.360;18.984;2022-09-09T03:00:49;4.00;;;2.53;;
43817;SDS011;29868;47.360;18.984;2022-09-09T03:03:16;3.20;;;2.25;;
43817;SDS011;29868;47.360;18.984;2022-09-09T03:05:43;4.45;;;2.67;;
43817;SDS011;29868;47.360;18.984;2022-09-09T03:08:09;3.40;;;2.60;;
43817;SDS011;29868;47.360;18.984;2022-09-09T03:10:35;4.60;;;3.00;;
43817;SDS011;29868;47.360;18.984;2022-09-09T03:13:02;5.25;;;3.13;;
43817;SDS011;29868;47.360;18.984;2022-09-09T03:15:30;3.72;;;2.70;;
43817;SDS011;29868;47.360;18.984;2022-09-09T03:17:59;4.55;;;2.88;;
43817;SDS011;29868;47.360;18.984;2022-09-09T03:20:25;4.35;;;2.63;;
43817;SDS011;29868;47.360;18.984;2022-09-09T03:22:52;4.65;;;3.17;;
43817;SDS011;29868;47.360;18.984;2022-09-09T03:25:19;4.28;;;2.88;;
43817;SDS011;29868;47.360;18.984;2022-09-09T03:27:44;4.38;;;3.10;;
43817;SDS011;29868;47.360;18.984;2022-09-09T03:30:10;6.55;;;2.72;;
43817;SDS011;29868;47.360;18.984;2022-09-09T03:32:36;3.70;;;2.40;;
43817;SDS011;29868;47.360;18.984;2022-09-09T03:35:02;3.20;;;2.25;;
43817;SDS011;29868;47.360;18.984;2022-09-09T03:37:27;3.38;;;2.17;;
43817;SDS011;29868;47.360;18.984;2022-09-09T03:39:53;3.60;;;2.50;;
43817;SDS011;29868;47.360;18.984;2022-09-09T03:42:19;2.63;;;2.13;;
43817;SDS011;29868;47.360;18.984;2022-09-09T03:44:45;3.30;;;2.58;;
43817;SDS011;29868;47.360;18.984;2022-09-09T03:47:16;3.35;;;2.58;;
43817;SDS011;29868;47.360;18.984;2022-09-09T03:49:46;3.03;;;2.30;;
43817;SDS011;29868;47.360;18.984;2022-09-09T03:52:13;3.22;;;2.38;;
43817;SDS011;29868;47.360;18.984;2022-09-09T03:54:39;3.70;;;2.65;;
43817;SDS011;29868;47.360;18.984;2022-09-09T03:57:04;3.63;;;2.60;;
43817;SDS011;29868;47.360;18.984;2022-09-09T03:59:30;3.33;;;2.42;;
43817;SDS011;29868;47.360;18.984;2022-09-09T04:01:55;3.50;;;2.70;;
43817;SDS011;29868;47.360;18.984;2022-09-09T04:04:22;3.92;;;2.72;;
43817;SDS011;29868;47.360;18.984;2022-09-09T04:06:47;5.30;;;2.90;;
43817;SDS011;29868;47.360;18.984;2022-09-09T04:09:13;5.05;;;2.80;;
43817;SDS011;29868;47.360;18.984;2022-09-09T04:11:39;5.00;;;3.35;;
43817;SDS011;29868;47.360;18.984;2022-09-09T04:14:04;4.85;;;3.00;;
43817;SDS011;29868;47.360;18.984;2022-09-09T04:16:31;4.60;;;3.28;;
43817;SDS011;29868;47.360;18.984;2022-09-09T04:18:57;5.28;;;3.05;;
43817;SDS011;29868;47.360;18.984;2022-09-09T04:21:24;4.93;;;3.35;;
43817;SDS011;29868;47.360;18.984;2022-09-09T04:23:50;4.78;;;3.15;;
43817;SDS011;29868;47.360;18.984;2022-09-09T04:26:16;5.50;;;3.35;;
43817;SDS011;29868;47.360;18.984;2022-09-09T04:28:42;4.32;;;3.35;;
43817;SDS011;29868;47.360;18.984;2022-09-09T04:31:20;4.53;;;3.20;;
43817;SDS011;29868;47.360;18.984;2022-09-09T04:33:48;5.00;;;3.42;;
43817;SDS011;29868;47.360;18.984;2022-09-09T04:36:14;4.97;;;3.30;;
43817;SDS011;29868;47.360;18.984;2022-09-09T04:38:40;5.43;;;3.50;;
43817;SDS011;29868;47.360;18.984;2022-09-09T04:41:05;5.10;;;3.40;;
43817;SDS011;29868;47.360;18.984;2022-09-09T04:43:32;4.78;;;3.50;;
43817;SDS011;29868;47.360;18.984;2022-09-09T04:45:57;6.25;;;4.30;;
43817;SDS011;29868;47.360;18.984;2022-09-09T04:48:24;5.80;;;3.90;;
43817;SDS011;29868;47.360;18.984;2022-09-09T04:51:00;6.45;;;3.88;;
43817;SDS011;29868;47.360;18.984;2022-09-09T04:53:28;4.88;;;3.78;;
43817;SDS011;29868;47.360;18.984;2022-09-09T04:58:30;6.00;;;4.13;;
43817;SDS011;29868;47.360;18.984;2022-09-09T05:01:02;5.20;;;3.65;;
43817;SDS011;29868;47.360;18.984;2022-09-09T05:03:32;5.47;;;3.85;;
43817;SDS011;29868;47.360;18.984;2022-09-09T05:06:04;5.97;;;3.72;;
43817;SDS011;29868;47.360;18.984;2022-09-09T05:08:36;5.13;;;3.55;;
43817;SDS011;29868;47.360;18.984;2022-09-09T05:11:13;4.40;;;3.38;;
43817;SDS011;29868;47.360;18.984;2022-09-09T05:13:41;5.68;;;3.30;;
43817;SDS011;29868;47.360;18.984;2022-09-09T05:16:06;5.40;;;3.72;;
43817;SDS011;29868;47.360;18.984;2022-09-09T05:18:31;4.60;;;3.42;;
43817;SDS011;29868;47.360;18.984;2022-09-09T05:20:59;4.70;;;3.10;;
43817;SDS011;29868;47.360;18.984;2022-09-09T05:23:25;4.63;;;3.15;;
43817;SDS011;29868;47.360;18.984;2022-09-09T05:25:57;5.40;;;3.30;;
43817;SDS011;29868;47.360;18.984;2022-09-09T05:28:23;4.00;;;2.90;;
43817;SDS011;29868;47.360;18.984;2022-09-09T05:31:00;4.20;;;2.75;;
43817;SDS011;29868;47.360;18.984;2022-09-09T05:33:30;3.70;;;2.88;;
43817;SDS011;29868;47.360;18.984;2022-09-09T05:36:06;3.50;;;2.70;;
43817;SDS011;29868;47.360;18.984;2022-09-09T05:38:33;4.05;;;2.70;;
43817;SDS011;29868;47.360;18.984;2022-09-09T05:40:59;4.32;;;2.70;;
43817;SDS011;29868;47.360;18.984;2022-09-09T05:43:25;4.22;;;2.78;;
43817;SDS011;29868;47.360;18.984;2022-09-09T05:45:58;3.42;;;2.60;;
43817;SDS011;29868;47.360;18.984;2022-09-09T05:48:33;2.63;;;2.10;;
43817;SDS011;29868;47.360;18.984;2022-09-09T05:51:02;3.67;;;2.08;;
43817;SDS011;29868;47.360;18.984;2022-09-09T05:53:29;3.65;;;2.10;;
43817;SDS011;29868;47.360;18.984;2022-09-09T05:58:31;2.30;;;1.70;;
43817;SDS011;29868;47.360;18.984;2022-09-09T06:01:05;3.05;;;1.63;;
43817;SDS011;29868;47.360;18.984;2022-09-09T06:03:35;1.58;;;1.48;;
43817;SDS011;29868;47.360;18.984;2022-09-09T06:06:03;2.92;;;1.58;;
43817;SDS011;29868;47.360;18.984;2022-09-09T06:08:30;5.18;;;1.80;;
43817;SDS011;29868;47.360;18.984;2022-09-09T06:11:07;2.58;;;1.50;;
43817;SDS011;29868;47.360;18.984;2022-09-09T06:13:37;3.33;;;1.70;;
43817;SDS011;29868;47.360;18.984;2022-09-09T06:16:04;2.22;;;1.90;;
43817;SDS011;29868;47.360;18.984;2022-09-09T06:18:30;2.80;;;1.90;;
43817;SDS011;29868;47.360;18.984;2022-09-09T06:21:02;3.88;;;1.98;;
43817;SDS011;29868;47.360;18.984;2022-09-09T06:23:30;3.33;;;1.88;;
43817;SDS011;29868;47.360;18.984;2022-09-09T06:31:03;3.72;;;2.20;;
43817;SDS011;29868;47.360;18.984;2022-09-09T06:33:32;3.85;;;2.30;;
43817;SDS011;29868;47.360;18.984;2022-09-09T06:36:00;2.92;;;2.20;;
43817;SDS011;29868;47.360;18.984;2022-09-09T06:38:26;4.32;;;1.98;;
43817;SDS011;29868;47.360;18.984;2022-09-09T06:40:57;3.10;;;2.13;;
43817;SDS011;29868;47.360;18.984;2022-09-09T06:43:24;4.03;;;2.40;;
43817;SDS011;29868;47.360;18.984;2022-09-09T06:45:54;3.88;;;2.30;;
43817;SDS011;29868;47.360;18.984;2022-09-09T06:48:23;2.55;;;2.00;;
43817;SDS011;29868;47.360;18.984;2022-09-09T06:50:51;3.13;;;2.20;;
43817;SDS011;29868;47.360;18.984;2022-09-09T06:53:26;2.40;;;1.80;;
43817;SDS011;29868;47.360;18.984;2022-09-09T06:55:52;2.78;;;2.00;;
43817;SDS011;29868;47.360;18.984;2022-09-09T06:58:18;2.25;;;1.90;;
43817;SDS011;29868;47.360;18.984;2022-09-09T07:00:43;2.88;;;1.80;;
43817;SDS011;29868;47.360;18.984;2022-09-09T07:03:09;2.13;;;1.73;;
43817;SDS011;29868;47.360;18.984;2022-09-09T07:05:35;2.30;;;1.77;;
43817;SDS011;29868;47.360;18.984;2022-09-09T07:08:01;1.77;;;1.50;;
43817;SDS011;29868;47.360;18.984;2022-09-09T07:10:27;3.13;;;1.50;;
43817;SDS011;29868;47.360;18.984;2022-09-09T07:12:52;2.05;;;1.55;;
43817;SDS011;29868;47.360;18.984;2022-09-09T07:15:18;1.67;;;1.50;;
43817;SDS011;29868;47.360;18.984;2022-09-09T07:17:44;2.28;;;1.50;;
43817;SDS011;29868;47.360;18.984;2022-09-09T07:20:11;2.25;;;1.60;;
43817;SDS011;29868;47.360;18.984;2022-09-09T07:22:37;2.63;;;1.70;;
43817;SDS011;29868;47.360;18.984;2022-09-09T07:25:03;2.08;;;1.60;;
43817;SDS011;29868;47.360;18.984;2022-09-09T07:27:29;3.08;;;1.90;;
43817;SDS011;29868;47.360;18.984;2022-09-09T07:29:55;2.53;;;1.70;;
43817;SDS011;29868;47.360;18.984;2022-09-09T07:32:20;2.03;;;1.48;;
43817;SDS011;29868;47.360;18.984;2022-09-09T07:34:46;2.10;;;1.50;;
43817;SDS011;29868;47.360;18.984;2022-09-09T07:37:12;1.63;;;1.42;;
43817;SDS011;29868;47.360;18.984;2022-09-09T07:39:38;1.98;;;1.30;;
43817;SDS011;29868;47.360;18.984;2022-09-09T07:42:04;2.90;;;1.60;;
43817;SDS011;29868;47.360;18.984;2022-09-09T07:44:30;1.88;;;1.67;;
43817;SDS011;29868;47.360;18.984;2022-09-09T07:46:57;2.08;;;1.40;;
43817;SDS011;29868;47.360;18.984;2022-09-09T07:49:22;1.73;;;1.48;;
43817;SDS011;29868;47.360;18.984;2022-09-09T07:51:48;2.45;;;1.60;;
43817;SDS011;29868;47.360;18.984;2022-09-09T07:54:15;1.50;;;1.17;;
43817;SDS011;29868;47.360;18.984;2022-09-09T07:56:44;3.03;;;1.35;;
43817;SDS011;29868;47.360;18.984;2022-09-09T07:59:10;1.85;;;1.27;;
43817;SDS011;29868;47.360;18.984;2022-09-09T08:01:38;1.90;;;1.50;;
43817;SDS011;29868;47.360;18.984;2022-09-09T08:04:15;2.40;;;1.27;;
43817;SDS011;29868;47.360;18.984;2022-09-09T08:06:43;1.77;;;1.25;;
43817;SDS011;29868;47.360;18.984;2022-09-09T08:09:13;1.40;;;1.30;;
43817;SDS011;29868;47.360;18.984;2022-09-09T08:11:40;1.67;;;1.30;;
43817;SDS011;29868;47.360;18.984;2022-09-09T08:14:06;3.53;;;1.45;;
43817;SDS011;29868;47.360;18.984;2022-09-09T08:16:33;2.55;;;1.65;;
43817;SDS011;29868;47.360;18.984;2022-09-09T08:19:02;2.63;;;1.40;;
43817;SDS011;29868;47.360;18.984;2022-09-09T08:21:30;1.60;;;1.30;;
43817;SDS011;29868;47.360;18.984;2022-09-09T08:23:57;3.15;;;1.33;;
43817;SDS011;29868;47.360;18.984;2022-09-09T08:26:25;3.30;;;1.40;;
43817;SDS011;29868;47.360;18.984;2022-09-09T08:28:53;1.55;;;1.30;;
43817;SDS011;29868;47.360;18.984;2022-09-09T08:31:25;1.30;;;1.10;;
43817;SDS011;29868;47.360;18.984;2022-09-09T08:33:55;1.38;;;1.27;;
43817;SDS011;29868;47.360;18.984;2022-09-09T08:36:23;1.77;;;1.20;;
43817;SDS011;29868;47.360;18.984;2022-09-09T08:38:51;2.15;;;1.20;;
43817;SDS011;29868;47.360;18.984;2022-09-09T08:41:36;1.58;;;1.10;;
43817;SDS011;29868;47.360;18.984;2022-09-09T08:52:48;1.58;;;1.30;;
43817;SDS011;29868;47.360;18.984;2022-09-09T08:57:39;1.30;;;1.20;;
43817;SDS011;29868;47.360;18.984;2022-09-09T09:00:07;3.55;;;1.20;;
43817;SDS011;29868;47.360;18.984;2022-09-09T09:02:42;2.03;;;1.20;;
43817;SDS011;29868;47.360;18.984;2022-09-09T09:10:45;16.88;;;3.13;;
43817;SDS011;29868;47.360;18.984;2022-09-09T09:13:14;1.35;;;1.20;;
43817;SDS011;29868;47.360;18.984;2022-09-09T09:15:43;3.85;;;1.25;;
43817;SDS011;29868;47.360;18.984;2022-09-09T09:18:12;1.67;;;1.13;;
43817;SDS011;29868;47.360;18.984;2022-09-09T09:20:42;1.30;;;1.10;;
43817;SDS011;29868;47.360;18.984;2022-09-09T09:23:26;1.10;;;0.90;;
43817;SDS011;29868;47.360;18.984;2022-09-09T09:26:06;1.55;;;1.20;;
43817;SDS011;29868;47.360;18.984;2022-09-09T09:28:34;1.45;;;1.00;;
43817;SDS011;29868;47.360;18.984;2022-09-09T09:33:43;1.67;;;0.98;;
43817;SDS011;29868;47.360;18.984;2022-09-09T09:36:15;1.65;;;1.05;;
43817;SDS011;29868;47.360;18.984;2022-09-09T09:38:51;1.00;;;0.90;;
43817;SDS011;29868;47.360;18.984;2022-09-09T09:43:59;1.35;;;0.80;;
43817;SDS011;29868;47.360;18.984;2022-09-09T09:46:26;2.05;;;0.60;;
43817;SDS011;29868;47.360;18.984;2022-09-09T09:49:01;1.00;;;0.90;;
43817;SDS011;29868;47.360;18.984;2022-09-09T09:51:31;1.08;;;1.00;;
43817;SDS011;29868;47.360;18.984;2022-09-09T09:56:39;1.23;;;0.70;;
43817;SDS011;29868;47.360;18.984;2022-09-09T09:59:05;0.80;;;0.80;;
43817;SDS011;29868;47.360;18.984;2022-09-09T10:01:44;0.85;;;0.70;;
43817;SDS011;29868;47.360;18.984;2022-09-09T10:04:16;1.02;;;0.82;;
43817;SDS011;29868;47.360;18.984;2022-09-09T10:06:48;1.25;;;0.77;;
43817;SDS011;29868;47.360;18.984;2022-09-09T10:09:22;0.50;;;0.50;;
43817;SDS011;29868;47.360;18.984;2022-09-09T10:12:35;1.20;;;0.75;;
43817;SDS011;29868;47.360;18.984;2022-09-09T10:14:56;0.60;;;0.60;;
43817;SDS011;29868;47.360;18.984;2022-09-09T10:17:46;0.73;;;0.50;;
43817;SDS011;29868;47.360;18.984;2022-09-09T10:25:49;0.65;;;0.60;;
43817;SDS011;29868;47.360;18.984;2022-09-09T10:33:51;0.98;;;0.60;;
43817;SDS011;29868;47.360;18.984;2022-09-09T10:36:31;0.43;;;0.43;;
43817;SDS011;29868;47.360;18.984;2022-09-09T10:39:04;0.82;;;0.60;;
43817;SDS011;29868;47.360;18.984;2022-09-09T11:02:55;0.82;;;0.57;;
43817;SDS011;29868;47.360;18.984;2022-09-09T11:08:04;0.52;;;0.52;;
43817;SDS011;29868;47.360;18.984;2022-09-09T11:13:24;0.50;;;0.50;;
43817;SDS011;29868;47.360;18.984;2022-09-09T11:16:01;0.50;;;0.50;;
43817;SDS011;29868;47.360;18.984;2022-09-09T11:18:36;0.85;;;0.57;;
43817;SDS011;29868;47.360;18.984;2022-09-09T11:21:12;0.82;;;0.60;;
43817;SDS011;29868;47.360;18.984;2022-09-09T11:23:45;0.50;;;0.40;;
43817;SDS011;29868;47.360;18.984;2022-09-09T11:26:29;0.60;;;0.40;;
43817;SDS011;29868;47.360;18.984;2022-09-09T11:40:23;0.60;;;0.50;;
43817;SDS011;29868;47.360;18.984;2022-09-09T11:43:00;0.40;;;0.40;;
43817;SDS011;29868;47.360;18.984;2022-09-09T11:45:34;0.80;;;0.70;;
43817;SDS011;29868;47.360;18.984;2022-09-09T11:48:02;1.13;;;0.70;;
43817;SDS011;29868;47.360;18.984;2022-09-09T11:50:30;0.50;;;0.50;;
43817;SDS011;29868;47.360;18.984;2022-09-09T11:55:38;1.20;;;0.50;;
43817;SDS011;29868;47.360;18.984;2022-09-09T12:00:42;2.38;;;0.57;;
43817;SDS011;29868;47.360;18.984;2022-09-09T12:06:00;1.67;;;0.57;;
43817;SDS011;29868;47.360;18.984;2022-09-09T12:08:39;0.77;;;0.50;;
43817;SDS011;29868;47.360;18.984;2022-09-09T12:11:07;0.52;;;0.50;;
43817;SDS011;29868;47.360;18.984;2022-09-09T12:13:32;0.57;;;0.47;;
43817;SDS011;29868;47.360;18.984;2022-09-09T12:16:01;0.88;;;0.50;;
43817;SDS011;29868;47.360;18.984;2022-09-09T12:18:33;0.60;;;0.50;;
43817;SDS011;29868;47.360;18.984;2022-09-09T12:23:39;0.60;;;0.60;;
43817;SDS011;29868;47.360;18.984;2022-09-09T12:31:34;0.60;;;0.60;;
43817;SDS011;29868;47.360;18.984;2022-09-09T12:36:55;0.80;;;0.50;;
43817;SDS011;29868;47.360;18.984;2022-09-09T12:39:29;0.82;;;0.47;;
43817;SDS011;29868;47.360;18.984;2022-09-09T12:42:02;1.30;;;0.50;;
43817;SDS011;29868;47.360;18.984;2022-09-09T12:44:29;1.15;;;0.65;;
43817;SDS011;29868;47.360;18.984;2022-09-09T12:46:56;0.60;;;0.60;;
43817;SDS011;29868;47.360;18.984;2022-09-09T12:49:29;0.82;;;0.63;;
43817;SDS011;29868;47.360;18.984;2022-09-09T12:52:01;0.77;;;0.52;;
43817;SDS011;29868;47.360;18.984;2022-09-09T12:54:30;0.70;;;0.60;;
43817;SDS011;29868;47.360;18.984;2022-09-09T12:56:56;1.23;;;0.77;;
43817;SDS011;29868;47.360;18.984;2022-09-09T12:59:24;0.68;;;0.60;;
43817;SDS011;29868;47.360;18.984;2022-09-09T13:01:57;0.52;;;0.52;;
43817;SDS011;29868;47.360;18.984;2022-09-09T13:04:23;2.28;;;0.85;;
43817;SDS011;29868;47.360;18.984;2022-09-09T13:06:49;1.00;;;0.60;;
43817;SDS011;29868;47.360;18.984;2022-09-09T13:09:15;1.45;;;0.60;;
43817;SDS011;29868;47.360;18.984;2022-09-09T13:11:41;0.50;;;0.50;;
43817;SDS011;29868;47.360;18.984;2022-09-09T13:14:12;2.00;;;0.70;;
43817;SDS011;29868;47.360;18.984;2022-09-09T13:16:53;1.00;;;0.60;;
43817;SDS011;29868;47.360;18.984;2022-09-09T13:19:20;1.40;;;0.70;;
43817;SDS011;29868;47.360;18.984;2022-09-09T13:21:46;1.48;;;0.90;;
43817;SDS011;29868;47.360;18.984;2022-09-09T13:24:24;0.80;;;0.60;;
43817;SDS011;29868;47.360;18.984;2022-09-09T13:26:58;1.75;;;0.70;;
43817;SDS011;29868;47.360;18.984;2022-09-09T13:29:28;2.08;;;0.55;;
43817;SDS011;29868;47.360;18.984;2022-09-09T13:32:05;0.65;;;0.50;;
43817;SDS011;29868;47.360;18.984;2022-09-09T13:34:37;1.58;;;0.77;;
43817;SDS011;29868;47.360;18.984;2022-09-09T13:37:04;2.38;;;0.70;;
43817;SDS011;29868;47.360;18.984;2022-09-09T13:39:35;1.40;;;0.80;;
43817;SDS011;29868;47.360;18.984;2022-09-09T13:42:02;1.05;;;0.52;;
43817;SDS011;29868;47.360;18.984;2022-09-09T13:44:34;1.08;;;0.60;;
43817;SDS011;29868;47.360;18.984;2022-09-09T13:47:04;0.82;;;0.70;;
43817;SDS011;29868;47.360;18.984;2022-09-09T13:49:31;0.80;;;0.63;;
43817;SDS011;29868;47.360;18.984;2022-09-09T13:54:31;1.40;;;0.68;;
43817;SDS011;29868;47.360;18.984;2022-09-09T13:56:56;0.63;;;0.60;;
43817;SDS011;29868;47.360;18.984;2022-09-09T13:59:22;0.60;;;0.52;;
43817;SDS011;29868;47.360;18.984;2022-09-09T14:01:49;1.60;;;0.73;;
43817;SDS011;29868;47.360;18.984;2022-09-09T14:04:17;1.40;;;0.73;;
43817;SDS011;29868;47.360;18.984;2022-09-09T14:06:45;0.90;;;0.63;;
43817;SDS011;29868;47.360;18.984;2022-09-09T14:09:13;2.40;;;0.70;;
43817;SDS011;29868;47.360;18.984;2022-09-09T14:11:40;1.65;;;0.70;;
43817;SDS011;29868;47.360;18.984;2022-09-09T14:14:06;0.93;;;0.70;;
43817;SDS011;29868;47.360;18.984;2022-09-09T14:16:31;1.50;;;0.60;;
43817;SDS011;29868;47.360;18.984;2022-09-09T14:18:57;1.45;;;0.90;;
43817;SDS011;29868;47.360;18.984;2022-09-09T14:21:24;0.75;;;0.60;;
43817;SDS011;29868;47.360;18.984;2022-09-09T14:23:49;1.05;;;0.50;;
43817;SDS011;29868;47.360;18.984;2022-09-09T14:26:15;0.82;;;0.70;;
43817;SDS011;29868;47.360;18.984;2022-09-09T14:28:40;3.53;;;0.75;;
43817;SDS011;29868;47.360;18.984;2022-09-09T14:31:05;1.67;;;0.80;;
43817;SDS011;29868;47.360;18.984;2022-09-09T14:33:32;2.40;;;0.80;;
43817;SDS011;29868;47.360;18.984;2022-09-09T14:35:58;2.35;;;0.80;;
43817;SDS011;29868;47.360;18.984;2022-09-09T14:38:32;3.10;;;1.05;;
43817;SDS011;29868;47.360;18.984;2022-09-09T14:40:58;1.60;;;0.80;;
43817;SDS011;29868;47.360;18.984;2022-09-09T14:43:24;1.33;;;0.70;;
43817;SDS011;29868;47.360;18.984;2022-09-09T14:45:51;2.67;;;0.85;;
43817;SDS011;29868;47.360;18.984;2022-09-09T14:48:17;0.77;;;0.60;;
43817;SDS011;29868;47.360;18.984;2022-09-09T14:50:43;1.20;;;0.70;;
43817;SDS011;29868;47.360;18.984;2022-09-09T14:53:08;0.60;;;0.60;;
43817;SDS011;29868;47.360;18.984;2022-09-09T14:55:35;0.60;;;0.60;;
43817;SDS011;29868;47.360;18.984;2022-09-09T14:58:01;0.50;;;0.50;;
43817;SDS011;29868;47.360;18.984;2022-09-09T15:00:27;1.08;;;0.60;;
43817;SDS011;29868;47.360;18.984;2022-09-09T15:02:53;0.60;;;0.60;;
43817;SDS011;29868;47.360;18.984;2022-09-09T15:05:18;1.75;;;0.70;;
43817;SDS011;29868;47.360;18.984;2022-09-09T15:07:44;0.50;;;0.50;;
43817;SDS011;29868;47.360;18.984;2022-09-09T15:10:09;0.80;;;0.68;;
43817;SDS011;29868;47.360;18.984;2022-09-09T15:12:36;1.60;;;0.70;;
43817;SDS011;29868;47.360;18.984;2022-09-09T15:15:02;0.85;;;0.75;;
43817;SDS011;29868;47.360;18.984;2022-09-09T15:17:28;1.15;;;0.63;;
43817;SDS011;29868;47.360;18.984;2022-09-09T15:19:53;0.85;;;0.47;;
43817;SDS011;29868;47.360;18.984;2022-09-09T15:22:19;0.73;;;0.60;;
43817;SDS011;29868;47.360;18.984;2022-09-09T15:24:45;0.75;;;0.60;;
43817;SDS011;29868;47.360;18.984;2022-09-09T15:27:10;2.55;;;0.70;;
43817;SDS011;29868;47.360;18.984;2022-09-09T15:29:35;0.50;;;0.50;;
43817;SDS011;29868;47.360;18.984;2022-09-09T15:32:03;1.52;;;0.90;;
43817;SDS011;29868;47.360;18.984;2022-09-09T15:34:29;1.27;;;0.70;;
43817;SDS011;29868;47.360;18.984;2022-09-09T15:36:54;0.70;;;0.60;;
43817;SDS011;29868;47.360;18.984;2022-09-09T15:39:20;2.20;;;0.60;;
43817;SDS011;29868;47.360;18.984;2022-09-09T15:41:47;0.85;;;0.70;;
43817;SDS011;29868;47.360;18.984;2022-09-09T15:44:13;1.10;;;0.80;;
43817;SDS011;29868;47.360;18.984;2022-09-09T15:46:49;0.93;;;0.70;;
43817;SDS011;29868;47.360;18.984;2022-09-09T15:49:16;0.88;;;0.70;;
43817;SDS011;29868;47.360;18.984;2022-09-09T15:51:44;1.35;;;0.70;;
43817;SDS011;29868;47.360;18.984;2022-09-09T15:54:13;1.77;;;0.65;;
43817;SDS011;29868;47.360;18.984;2022-09-09T15:56:42;3.08;;;0.90;;
43817;SDS011;29868;47.360;18.984;2022-09-09T15:59:07;0.88;;;0.80;;
43817;SDS011;29868;47.360;18.984;2022-09-09T16:01:33;0.90;;;0.75;;
43817;SDS011;29868;47.360;18.984;2022-09-09T16:03:59;1.10;;;0.88;;
43817;SDS011;29868;47.360;18.984;2022-09-09T16:06:25;0.77;;;0.77;;
43817;SDS011;29868;47.360;18.984;2022-09-09T16:08:52;2.47;;;0.70;;
43817;SDS011;29868;47.360;18.984;2022-09-09T16:11:22;0.95;;;0.70;;
43817;SDS011;29868;47.360;18.984;2022-09-09T16:13:49;1.35;;;0.85;;
43817;SDS011;29868;47.360;18.984;2022-09-09T16:16:17;2.75;;;0.70;;
43817;SDS011;29868;47.360;18.984;2022-09-09T16:18:48;2.33;;;0.90;;
43817;SDS011;29868;47.360;18.984;2022-09-09T16:21:26;1.08;;;0.80;;
43817;SDS011;29868;47.360;18.984;2022-09-09T16:23:54;1.30;;;0.80;;
43817;SDS011;29868;47.360;18.984;2022-09-09T16:26:21;1.85;;;1.00;;
43817;SDS011;29868;47.360;18.984;2022-09-09T16:28:47;1.30;;;0.80;;
43817;SDS011;29868;47.360;18.984;2022-09-09T16:31:14;2.00;;;0.80;;
43817;SDS011;29868;47.360;18.984;2022-09-09T16:33:42;1.58;;;0.80;;
43817;SDS011;29868;47.360;18.984;2022-09-09T16:36:09;1.45;;;1.00;;
43817;SDS011;29868;47.360;18.984;2022-09-09T16:38:37;1.50;;;0.80;;
43817;SDS011;29868;47.360;18.984;2022-09-09T16:41:03;0.90;;;0.70;;
43817;SDS011;29868;47.360;18.984;2022-09-09T16:43:33;3.03;;;1.00;;
43817;SDS011;29868;47.360;18.984;2022-09-09T16:46:00;4.45;;;1.70;;
43817;SDS011;29868;47.360;18.984;2022-09-09T16:48:34;1.73;;;1.10;;
43817;SDS011;29868;47.360;18.984;2022-09-09T16:51:07;2.60;;;0.85;;
43817;SDS011;29868;47.360;18.984;2022-09-09T16:53:36;1.95;;;0.98;;
43817;SDS011;29868;47.360;18.984;2022-09-09T16:56:08;2.92;;;1.30;;
43817;SDS011;29868;47.360;18.984;2022-09-09T16:58:35;3.72;;;1.65;;
43817;SDS011;29868;47.360;18.984;2022-09-09T17:01:01;3.47;;;1.85;;
43817;SDS011;29868;47.360;18.984;2022-09-09T17:03:28;2.90;;;1.58;;
43817;SDS011;29868;47.360;18.984;2022-09-09T17:05:54;4.13;;;1.88;;
43817;SDS011;29868;47.360;18.984;2022-09-09T17:08:19;2.55;;;1.60;;
43817;SDS011;29868;47.360;18.984;2022-09-09T17:10:44;2.58;;;1.65;;
43817;SDS011;29868;47.360;18.984;2022-09-09T17:13:10;3.03;;;1.70;;
43817;SDS011;29868;47.360;18.984;2022-09-09T17:15:41;3.13;;;1.65;;
43817;SDS011;29868;47.360;18.984;2022-09-09T17:18:08;3.08;;;1.70;;
43817;SDS011;29868;47.360;18.984;2022-09-09T17:20:35;3.70;;;2.03;;
43817;SDS011;29868;47.360;18.984;2022-09-09T17:23:02;4.40;;;1.60;;